createdAt,value
2024-02-13T00:00:36.763Z,99317.47
2024-02-13T00:03:39.448Z,99321.44
2024-02-13T00:06:43.098Z,99314.00
2024-02-13T00:09:45.757Z,99316.22
2024-02-13T00:12:48.300Z,99335.94
2024-02-13T00:15:51.238Z,99333.13
2024-02-13T00:18:53.754Z,99334.31
2024-02-13T00:21:57.067Z,99336.00
2024-02-13T00:24:59.587Z,99334.75
2024-02-13T00:28:02.122Z,99339.13
2024-02-13T00:31:08.792Z,99339.13
2024-02-13T00:34:11.545Z,99334.91
2024-02-13T00:37:14.714Z,99337.50
2024-02-13T00:40:17.071Z,99336.84
2024-02-13T00:43:21.439Z,99335.06
2024-02-13T00:46:24.063Z,99343.00
2024-02-13T00:49:26.358Z,99346.78
2024-02-13T00:52:29.836Z,99352.28
2024-02-13T00:55:33.026Z,99356.34
2024-02-13T00:58:38.540Z,99362.06
2024-02-13T01:01:40.945Z,99364.22
2024-02-13T01:04:43.656Z,99364.38
2024-02-13T01:07:46.762Z,99366.34
2024-02-13T01:10:49.046Z,99367.44
2024-02-13T01:13:52.627Z,99371.09
2024-02-13T01:16:55.178Z,99362.41
2024-02-13T01:19:58.819Z,99366.03
2024-02-13T01:23:01.489Z,99368.81
2024-02-13T01:26:04.604Z,99379.44
2024-02-13T01:29:07.264Z,99374.94
2024-02-13T01:32:10.414Z,99384.88
2024-02-13T01:35:13.176Z,99378.00
2024-02-13T01:38:15.763Z,99382.34
2024-02-13T01:41:18.512Z,99375.28
2024-02-13T01:44:21.295Z,99382.84
2024-02-13T01:47:24.437Z,99381.91
2024-02-13T01:50:28.776Z,99386.06
2024-02-13T01:53:32.588Z,99402.34
2024-02-13T01:56:35.553Z,99403.84
2024-02-13T01:59:40.385Z,99403.59
2024-02-13T02:02:44.597Z,99410.75
2024-02-13T02:05:47.570Z,99415.16
2024-02-13T02:08:50.124Z,99420.53
2024-02-13T02:11:55.545Z,99416.28
2024-02-13T02:14:58.560Z,99419.81
2024-02-13T02:18:01.261Z,99419.88
2024-02-13T02:21:03.831Z,99427.72
2024-02-13T02:24:07.790Z,99439.00
2024-02-13T02:27:10.123Z,99435.44
2024-02-13T02:30:12.798Z,99443.16
2024-02-13T02:33:16.107Z,99439.69
2024-02-13T02:36:18.936Z,99441.47
2024-02-13T02:39:22.761Z,99443.28
2024-02-13T02:42:25.371Z,99451.22
2024-02-13T02:45:29.021Z,99452.13
2024-02-13T02:48:31.467Z,99465.22
2024-02-13T02:51:34.643Z,99460.16
2024-02-13T02:54:37.890Z,99466.38
2024-02-13T02:57:40.620Z,99473.56
2024-02-13T03:00:45.195Z,99458.16
2024-02-13T03:03:48.394Z,99462.63
2024-02-13T03:06:51.067Z,99466.28
2024-02-13T03:09:53.798Z,99466.41
2024-02-13T03:12:56.831Z,99476.25
2024-02-13T03:15:59.367Z,99471.31
2024-02-13T03:19:04.174Z,99478.50
2024-02-13T03:22:06.978Z,99482.09
2024-02-13T03:25:10.410Z,99485.72
2024-02-13T03:28:13.004Z,99490.22
2024-02-13T03:31:15.928Z,99496.38
2024-02-13T03:34:18.618Z,99504.91
2024-02-13T03:41:20.153Z,99514.88
2024-02-13T03:44:24.105Z,99521.22
2024-02-13T03:47:26.714Z,99528.94
2024-02-13T03:50:29.263Z,99534.75
2024-02-13T03:53:35.430Z,99533.06
2024-02-13T03:56:39.121Z,99531.22
2024-02-13T03:59:41.706Z,99537.28
2024-02-13T04:02:45.951Z,99551.16
2024-02-13T04:05:51.082Z,99556.50
2024-02-13T04:08:53.635Z,99567.69
2024-02-13T04:11:58.751Z,99566.84
2024-02-13T04:15:01.534Z,99570.38
2024-02-13T04:18:04.218Z,99573.75
2024-02-13T04:21:06.954Z,99579.66
2024-02-13T04:24:09.527Z,99578.00
2024-02-13T04:27:12.086Z,99582.34
2024-02-13T04:30:14.986Z,99579.66
2024-02-13T04:33:17.724Z,99589.13
2024-02-13T04:36:20.438Z,99588.22
2024-02-13T04:39:22.691Z,99597.75
2024-02-13T04:42:35.767Z,99597.75
2024-02-13T04:45:38.645Z,99603.78
2024-02-13T04:48:41.350Z,99597.56
2024-02-13T04:51:44.764Z,99602.66
2024-02-13T04:54:47.107Z,99609.53
2024-02-13T04:57:49.962Z,99615.53
2024-02-13T05:01:11.750Z,99615.62
2024-02-13T05:04:17.643Z,99617.38
2024-02-13T05:07:24.879Z,99620.00
2024-02-13T05:10:27.467Z,99621.75
2024-02-13T05:13:32.682Z,99620.78
2024-02-13T05:16:35.370Z,99631.09
2024-02-13T05:19:38.017Z,99639.62
2024-02-13T05:22:40.533Z,99635.22
2024-02-13T05:25:42.916Z,99640.13
2024-02-13T05:28:45.845Z,99647.00
2024-02-13T05:31:48.409Z,99650.41
2024-02-13T05:34:50.654Z,99656.22
2024-02-13T05:37:53.332Z,99656.09
2024-02-13T05:40:56.555Z,99669.97
2024-02-13T05:43:59.160Z,99675.91
2024-02-13T05:47:03.968Z,99673.44
2024-02-13T05:50:08.980Z,99679.69
2024-02-13T05:53:11.741Z,99690.28
2024-02-13T05:56:23.344Z,99699.88
2024-02-13T05:59:33.122Z,99701.28
2024-02-13T06:02:35.857Z,99710.84
2024-02-13T06:05:38.649Z,99710.84
2024-02-13T06:08:40.966Z,99716.03
2024-02-13T06:11:43.921Z,99717.78
2024-02-13T06:14:48.440Z,99731.78
2024-02-13T06:17:51.279Z,99742.25
2024-02-13T06:20:55.353Z,99745.00
2024-02-13T06:23:57.851Z,99748.50
2024-02-13T06:27:00.483Z,99751.16
2024-02-13T06:33:51.685Z,99761.72
2024-02-13T06:36:55.022Z,99765.41
2024-02-13T06:39:57.305Z,99775.81
2024-02-13T06:43:00.186Z,99776.62
2024-02-13T06:46:03.619Z,99782.66
2024-02-13T06:49:14.397Z,99787.75
2024-02-13T06:52:19.673Z,99788.53
2024-02-13T06:55:22.153Z,99798.81
2024-02-13T06:58:24.589Z,99803.97
2024-02-13T07:05:24.805Z,99821.91
2024-02-13T07:08:28.358Z,99822.72
2024-02-13T07:11:31.541Z,99822.47
2024-02-13T07:14:34.569Z,99823.06
2024-02-13T07:17:48.036Z,99830.56
2024-02-13T07:21:03.327Z,99828.28
2024-02-13T07:24:10.579Z,99832.31
2024-02-13T07:27:12.958Z,99837.28
2024-02-13T07:30:16.473Z,99844.97
2024-02-13T07:33:18.746Z,99842.09
2024-02-13T07:36:21.307Z,99845.81
2024-02-13T07:39:24.053Z,99847.28
2024-02-13T07:42:29.224Z,99848.37
2024-02-13T07:45:31.537Z,99851.41
2024-02-13T07:48:35.223Z,99858.31
2024-02-13T07:51:39.716Z,99873.28
2024-02-13T07:54:42.231Z,99874.69
2024-02-13T07:57:44.727Z,99874.94
2024-02-13T08:00:47.525Z,99884.41
2024-02-13T08:03:50.207Z,99884.69
2024-02-13T08:06:52.852Z,99895.22
2024-02-13T08:09:55.888Z,99892.25
2024-02-13T08:12:58.918Z,99900.41
2024-02-13T08:16:01.202Z,99892.00
2024-02-13T08:19:04.025Z,99899.47
2024-02-13T08:22:06.564Z,99899.81
2024-02-13T08:25:09.666Z,99905.75
2024-02-13T08:28:14.086Z,99907.47
2024-02-13T08:31:16.243Z,99917.44
2024-02-13T08:34:19.118Z,99919.69
2024-02-13T08:37:23.583Z,99916.16
2024-02-13T08:40:25.860Z,99918.44
2024-02-13T08:43:28.067Z,99925.53
2024-02-13T08:46:30.812Z,99938.84
2024-02-13T08:49:33.476Z,99941.91
2024-02-13T08:52:36.295Z,99940.41
2024-02-13T08:55:38.556Z,99943.62
2024-02-13T08:58:40.904Z,99945.72
2024-02-13T09:01:43.512Z,99944.59
2024-02-13T09:04:51.663Z,99945.47
2024-02-13T09:07:54.401Z,99956.09
2024-02-13T09:10:56.711Z,99965.38
2024-02-13T09:13:58.893Z,99958.59
2024-02-13T09:17:01.831Z,99959.25
2024-02-13T09:20:07.190Z,99966.78
2024-02-13T09:23:10.440Z,99966.25
2024-02-13T09:26:13.136Z,99963.22
2024-02-13T09:29:15.715Z,99966.06
2024-02-13T09:32:18.309Z,99974.09
2024-02-13T09:35:20.817Z,99981.16
2024-02-13T09:38:24.010Z,99987.66
2024-02-13T09:41:26.577Z,100004.91
2024-02-13T09:44:29.148Z,99990.28
2024-02-13T09:47:35.499Z,100004.97
2024-02-13T09:50:42.742Z,100013.44
2024-02-13T09:53:47.260Z,100021.47
2024-02-13T09:56:52.526Z,100035.72
2024-02-13T09:59:58.273Z,100029.09
2024-02-13T10:03:03.713Z,100029.53
2024-02-13T10:06:07.865Z,100041.44
2024-02-13T10:09:13.176Z,100049.09
2024-02-13T10:12:16.152Z,100038.81
2024-02-13T10:15:18.449Z,100047.47
2024-02-13T10:18:21.821Z,100046.94
2024-02-13T10:21:28.732Z,100041.31
2024-02-13T10:24:31.690Z,100032.88
2024-02-13T10:27:34.412Z,100055.06
2024-02-13T10:30:39.205Z,100058.84
2024-02-13T10:33:43.107Z,100062.62
2024-02-13T10:36:46.698Z,100068.78
2024-02-13T10:39:52.913Z,100049.72
2024-02-13T10:42:56.424Z,100051.16
2024-02-13T10:46:00.126Z,100049.59
2024-02-13T10:49:21.116Z,100043.28
2024-02-13T10:52:24.374Z,100045.62
2024-02-13T10:55:27.918Z,100045.25
2024-02-13T10:58:33.332Z,100045.62
2024-02-13T11:01:36.586Z,100035.47
2024-02-13T11:04:44.685Z,100041.31
2024-02-13T11:07:47.685Z,100033.84
2024-02-13T11:10:51.351Z,100038.88
2024-02-13T11:13:53.783Z,100041.50
2024-02-13T11:17:02.108Z,100031.56
2024-02-13T11:20:10.728Z,100040.19
2024-02-13T11:23:16.687Z,100033.44
2024-02-13T11:26:19.756Z,100032.06
2024-02-13T11:29:23.644Z,100029.28
2024-02-13T11:32:37.695Z,100027.88
2024-02-13T11:35:54.617Z,100032.81
2024-02-13T11:38:59.621Z,100026.97
2024-02-13T11:42:03.046Z,100031.25
2024-02-13T11:45:07.653Z,100034.44
2024-02-13T11:48:16.457Z,100026.25
2024-02-13T11:51:18.957Z,100024.25
2024-02-13T11:54:21.611Z,100023.84
2024-02-13T11:57:26.578Z,100023.97
2024-02-13T12:00:29.114Z,100029.91
2024-02-13T12:03:34.376Z,100026.97
2024-02-13T12:06:36.927Z,100030.34
2024-02-13T12:09:44.065Z,100019.59
2024-02-13T12:12:46.788Z,100020.28
2024-02-13T12:15:50.010Z,100011.94
2024-02-13T12:18:53.592Z,100008.12
2024-02-13T12:21:56.813Z,100015.50
2024-02-13T12:25:08.132Z,100002.56
2024-02-13T12:28:13.861Z,100000.91
2024-02-13T12:31:17.025Z,100010.00
2024-02-13T12:34:20.439Z,99999.47
2024-02-13T12:37:22.826Z,100003.31
2024-02-13T12:40:27.899Z,99999.41
2024-02-13T12:43:30.675Z,99993.37
2024-02-13T12:46:38.535Z,99996.22
2024-02-13T12:49:45.083Z,100004.09
2024-02-13T12:52:50.713Z,100001.69
2024-02-13T12:55:54.114Z,99998.19
2024-02-13T12:58:56.640Z,99993.72
2024-02-13T13:02:00.704Z,100003.25
2024-02-13T13:05:04.270Z,100002.09
2024-02-13T13:08:07.091Z,99997.31
2024-02-13T13:11:12.106Z,100012.12
2024-02-13T13:14:17.518Z,100004.91
2024-02-13T13:17:23.124Z,100004.19
2024-02-13T13:20:25.794Z,100009.28
2024-02-13T13:23:28.427Z,100001.62
2024-02-13T13:26:34.562Z,100002.84
2024-02-13T13:29:41.559Z,100009.13
2024-02-13T13:32:45.706Z,99998.09
2024-02-13T13:35:48.799Z,100002.91
2024-02-13T13:38:51.160Z,100010.78
2024-02-13T13:41:55.785Z,100007.66
2024-02-13T13:44:58.073Z,100014.38
2024-02-13T13:48:15.208Z,100008.91
2024-02-13T13:51:17.664Z,100015.75
2024-02-13T13:54:21.526Z,100018.06
2024-02-13T13:57:24.737Z,100033.91
2024-02-13T14:00:31.227Z,100022.34
2024-02-13T14:03:33.533Z,100031.66
2024-02-13T14:06:36.159Z,100028.66
2024-02-13T14:09:38.928Z,100035.53
2024-02-13T14:12:44.649Z,100038.53
2024-02-13T14:15:46.902Z,100044.34
2024-02-13T14:18:49.764Z,100043.41
2024-02-13T14:21:52.116Z,100052.78
2024-02-13T14:24:55.186Z,100053.94
2024-02-13T14:28:01.032Z,100047.84
2024-02-13T14:31:03.277Z,100057.31
2024-02-13T14:34:07.250Z,100065.28
2024-02-13T14:37:11.320Z,100058.91
2024-02-13T14:40:16.934Z,100068.09
2024-02-13T14:43:19.405Z,100065.91
2024-02-13T14:46:21.577Z,100072.03
2024-02-13T14:49:24.975Z,100076.00
2024-02-13T14:52:27.669Z,100071.97
2024-02-13T14:55:30.993Z,100084.87
2024-02-13T14:58:39.189Z,100081.22
2024-02-13T15:01:43.117Z,100083.06
2024-02-13T15:04:46.037Z,100078.50
2024-02-13T15:07:53.683Z,100079.72
2024-02-13T15:10:56.055Z,100080.38
2024-02-13T15:13:59.797Z,100078.78
2024-02-13T15:17:02.031Z,100087.09
2024-02-13T15:20:06.556Z,100085.59
2024-02-13T15:23:27.942Z,100096.62
2024-02-13T15:26:32.200Z,100098.81
2024-02-13T15:29:34.568Z,100090.41
2024-02-13T15:32:38.190Z,100106.16
2024-02-13T15:35:43.321Z,100110.84
2024-02-13T15:39:04.444Z,100110.75
2024-02-13T15:42:25.266Z,100119.69
2024-02-13T15:45:46.683Z,100127.78
2024-02-13T15:48:49.310Z,100123.19
2024-02-13T15:51:55.512Z,100132.66
2024-02-13T15:59:09.540Z,100139.59
2024-02-13T16:02:12.106Z,100150.09
2024-02-13T16:05:18.681Z,100149.59
2024-02-13T16:08:22.378Z,100150.16
2024-02-13T16:11:24.814Z,100152.28
2024-02-13T16:14:28.543Z,100156.38
2024-02-13T16:17:31.080Z,100163.09
2024-02-13T16:20:33.430Z,100174.28
2024-02-13T16:23:35.717Z,100174.94
2024-02-13T16:26:39.246Z,100187.66
2024-02-13T16:29:41.948Z,100187.59
2024-02-13T16:32:44.534Z,100193.34
2024-02-13T16:35:47.241Z,100192.94
2024-02-13T16:38:49.663Z,100197.44
2024-02-13T16:41:55.158Z,100207.19
2024-02-13T16:44:58.052Z,100200.38
2024-02-13T16:48:00.765Z,100210.06
2024-02-13T16:51:03.439Z,100227.72
2024-02-13T16:54:08.487Z,100229.75
2024-02-13T16:57:14.652Z,100227.47
2024-02-13T17:00:17.943Z,100241.72
2024-02-13T17:03:20.913Z,100234.34
2024-02-13T17:06:23.416Z,100228.75
2024-02-13T17:09:25.774Z,100224.84
2024-02-13T17:12:28.265Z,100237.66
2024-02-13T17:15:31.622Z,100248.62
2024-02-13T17:18:34.568Z,100244.63
2024-02-13T17:21:36.958Z,100260.00
2024-02-13T17:24:42.522Z,100254.59
2024-02-13T17:27:45.273Z,100263.47
2024-02-13T17:30:47.548Z,100267.22
2024-02-13T17:33:49.924Z,100266.78
2024-02-13T17:36:52.397Z,100272.44
2024-02-13T17:39:54.853Z,100269.19
2024-02-13T17:42:57.367Z,100274.84
2024-02-13T17:46:00.846Z,100280.38
2024-02-13T17:49:04.791Z,100287.66
2024-02-13T17:52:07.616Z,100279.31
2024-02-13T17:55:10.976Z,100282.38
2024-02-13T17:58:14.838Z,100291.78
2024-02-13T18:01:17.268Z,100300.03
2024-02-13T18:04:21.429Z,100302.66
2024-02-13T18:07:24.798Z,100307.31
2024-02-13T18:10:27.794Z,100298.69
2024-02-13T18:13:31.036Z,100300.63
2024-02-13T18:16:35.351Z,100302.69
2024-02-13T18:19:38.055Z,100303.12
2024-02-13T18:22:41.323Z,100304.19
2024-02-13T18:25:45.158Z,100310.41
2024-02-13T18:28:47.694Z,100306.31
2024-02-13T18:31:50.007Z,100313.50
2024-02-13T18:34:54.551Z,100324.22
2024-02-13T18:37:57.230Z,100323.66
2024-02-13T18:41:00.262Z,100312.56
2024-02-13T18:44:02.842Z,100328.78
2024-02-13T18:47:11.101Z,100324.69
2024-02-13T18:50:13.407Z,100336.13
2024-02-13T18:53:15.890Z,100340.81
2024-02-13T18:56:18.632Z,100349.66
2024-02-13T18:59:21.356Z,100354.78
2024-02-13T19:02:24.221Z,100354.88
2024-02-13T19:05:26.658Z,100357.12
2024-02-13T19:08:29.162Z,100358.31
2024-02-13T19:11:31.693Z,100361.28
2024-02-13T19:14:34.136Z,100361.59
2024-02-13T19:17:37.062Z,100367.00
2024-02-13T19:20:39.701Z,100371.34
2024-02-13T19:23:42.179Z,100365.44
2024-02-13T19:26:45.203Z,100367.09
2024-02-13T19:29:48.640Z,100377.84
2024-02-13T19:32:52.975Z,100379.84
2024-02-13T19:35:56.010Z,100373.03
2024-02-13T19:39:03.375Z,100371.50
2024-02-13T19:42:05.939Z,100377.72
2024-02-13T19:45:08.923Z,100376.94
2024-02-13T19:48:11.478Z,100372.69
2024-02-13T19:51:14.611Z,100385.97
2024-02-13T19:54:21.557Z,100388.84
2024-02-13T19:57:26.529Z,100383.84
2024-02-13T20:00:28.765Z,100394.53
2024-02-13T20:03:31.387Z,100397.25
2024-02-13T20:06:35.317Z,100407.00
2024-02-13T20:09:37.624Z,100409.75
2024-02-13T20:12:41.132Z,100405.53
2024-02-13T20:15:44.920Z,100413.44
2024-02-13T20:18:47.797Z,100412.63
2024-02-13T20:21:50.578Z,100416.37
2024-02-13T20:24:54.624Z,100414.81
2024-02-13T20:27:58.686Z,100415.00
2024-02-13T20:31:01.248Z,100412.59
2024-02-13T20:34:04.284Z,100422.22
2024-02-13T20:37:07.946Z,100420.50
2024-02-13T20:40:13.242Z,100428.28
2024-02-13T20:43:18.078Z,100431.91
2024-02-13T20:46:21.782Z,100441.91
2024-02-13T20:49:25.661Z,100435.16
2024-02-13T20:52:29.763Z,100435.22
2024-02-13T20:55:32.335Z,100437.16
2024-02-13T20:58:35.161Z,100442.59
2024-02-13T21:01:39.751Z,100437.59
2024-02-13T21:04:46.971Z,100443.87
2024-02-13T21:07:50.513Z,100443.22
2024-02-13T21:10:52.878Z,100432.00
2024-02-13T21:13:57.189Z,100439.09
2024-02-13T21:17:03.220Z,100441.09
2024-02-13T21:20:06.654Z,100445.44
2024-02-13T21:23:29.091Z,100447.97
2024-02-13T21:26:31.848Z,100456.94
2024-02-13T21:29:35.611Z,100459.84
2024-02-13T21:32:39.122Z,100461.78
2024-02-13T21:35:41.495Z,100459.31
2024-02-13T21:38:44.709Z,100461.91
2024-02-13T21:41:46.961Z,100467.22
2024-02-13T21:44:49.481Z,100468.19
2024-02-13T21:47:52.173Z,100462.19
2024-02-13T21:50:55.966Z,100465.72
2024-02-13T21:53:58.927Z,100462.34
2024-02-13T21:57:01.638Z,100471.13
2024-02-13T22:00:08.049Z,100463.34
2024-02-13T22:03:10.544Z,100459.72
2024-02-13T22:06:15.237Z,100462.97
2024-02-13T22:09:18.331Z,100462.84
2024-02-13T22:12:21.014Z,100464.56
2024-02-13T22:15:25.320Z,100468.03
2024-02-13T22:22:38.277Z,100481.50
2024-02-13T22:25:41.820Z,100484.97
2024-02-13T22:28:44.192Z,100491.03
2024-02-13T22:31:46.705Z,100501.53
2024-02-13T22:34:49.263Z,100494.56
2024-02-13T22:37:51.541Z,100496.44
2024-02-13T22:40:54.072Z,100497.44
2024-02-13T22:43:56.306Z,100499.28
2024-02-13T22:46:58.920Z,100500.09
2024-02-13T22:50:01.582Z,100503.78
2024-02-13T22:53:04.732Z,100509.97
2024-02-13T22:56:08.598Z,100508.34
2024-02-13T22:59:10.932Z,100504.75
2024-02-13T23:02:14.434Z,100507.38
2024-02-13T23:05:16.908Z,100504.63
2024-02-13T23:08:19.367Z,100506.34
2024-02-13T23:11:22.958Z,100502.03
2024-02-13T23:14:27.422Z,100501.19
2024-02-13T23:17:33.007Z,100506.47
2024-02-13T23:20:37.123Z,100502.16
2024-02-13T23:23:42.491Z,100508.41
2024-02-13T23:26:45.095Z,100508.34
2024-02-13T23:29:47.454Z,100510.28
2024-02-13T23:32:50.456Z,100509.62
2024-02-13T23:35:54.476Z,100511.56
2024-02-13T23:38:57.573Z,100514.44
2024-02-13T23:42:00.265Z,100518.00
2024-02-13T23:45:02.814Z,100522.25
2024-02-13T23:48:05.699Z,100522.38
2024-02-13T23:51:08.351Z,100519.84
2024-02-13T23:54:10.764Z,100523.47
2024-02-13T23:57:13.458Z,100528.75
